createdAt,value
2018-08-06T06:53:16.933Z,51.90
2018-08-06T06:55:44.469Z,51.90
2018-08-06T06:58:11.996Z,51.70
2018-08-06T07:00:39.520Z,51.40
2018-08-06T07:03:07.040Z,50.90
2018-08-06T07:05:34.595Z,50.70
2018-08-06T07:08:02.140Z,50.80
2018-08-06T07:10:29.680Z,50.40
2018-08-06T07:12:57.216Z,50.70
2018-08-06T07:15:24.744Z,50.60
2018-08-06T07:17:52.284Z,50.60
2018-08-06T07:20:21.012Z,50.60
2018-08-06T07:22:48.613Z,50.20
2018-08-06T07:25:16.178Z,50.60
2018-08-06T07:27:44.056Z,50.90
2018-08-06T07:30:12.493Z,51.20
2018-08-06T07:32:40.828Z,51.30
2018-08-06T07:35:09.004Z,52.30
2018-08-06T07:37:37.061Z,52.80
2018-08-06T07:40:05.564Z,52.20
2018-08-06T07:42:33.056Z,51.70
2018-08-06T07:45:00.599Z,52.00
2018-08-06T07:47:28.138Z,52.10
2018-08-06T07:49:55.757Z,51.90
2018-08-06T07:52:23.272Z,51.90
2018-08-06T07:54:50.816Z,51.30
2018-08-06T07:57:18.340Z,51.20
2018-08-06T07:59:49.991Z,50.30
2018-08-06T08:02:17.464Z,50.30
2018-08-06T08:04:45.013Z,49.90
2018-08-06T08:07:12.541Z,49.50
2018-08-06T08:09:40.081Z,49.30
2018-08-06T08:12:07.603Z,49.30
2018-08-06T08:14:35.170Z,48.90
2018-08-06T11:35:40.332Z,55.60
2018-08-06T11:38:07.864Z,55.20
2018-08-06T11:40:35.436Z,54.00
2018-08-06T11:43:02.966Z,54.10
2018-08-06T11:45:30.541Z,52.20
2018-08-06T11:47:58.069Z,51.50
2018-08-06T11:50:25.596Z,51.10
2018-08-06T11:52:53.176Z,50.60
2018-08-06T11:55:20.695Z,50.20
2018-08-06T11:57:48.283Z,50.00
2018-08-06T12:00:17.653Z,49.90
2018-08-06T12:02:45.200Z,49.70
2018-08-06T12:05:12.733Z,49.50
2018-08-06T12:07:40.264Z,49.30
2018-08-06T12:10:08.859Z,49.10
2018-08-06T12:12:38.574Z,49.10
2018-08-06T12:15:06.738Z,49.00
2018-08-06T12:17:34.226Z,48.90
2018-08-06T12:20:01.769Z,49.10
2018-08-06T12:22:29.368Z,49.20
2018-08-06T12:24:56.912Z,49.90
2018-08-06T12:27:24.478Z,50.40
2018-08-06T12:29:52.169Z,50.80
2018-08-06T12:32:19.745Z,51.00
2018-08-06T12:34:47.326Z,51.10
2018-08-06T12:37:14.853Z,51.10
2018-08-06T12:39:42.368Z,51.40
2018-08-06T12:42:09.901Z,53.60
2018-08-06T12:44:37.423Z,53.80
2018-08-06T12:47:04.981Z,54.50
2018-08-06T12:49:32.545Z,53.70
2018-08-06T12:52:00.224Z,54.50
2018-08-06T12:54:27.765Z,54.50
2018-08-06T12:56:55.284Z,54.40
2018-08-06T12:59:22.804Z,54.60
2018-08-06T13:01:50.332Z,53.70
2018-08-06T13:04:17.901Z,53.90
2018-08-06T13:06:45.425Z,53.70
2018-08-06T13:09:12.947Z,53.60
2018-08-06T13:11:40.487Z,53.70
2018-08-06T13:14:08.135Z,53.60
2018-08-06T13:16:35.674Z,53.30
2018-08-06T13:19:03.295Z,53.40
2018-08-06T13:21:30.955Z,53.30
2018-08-06T13:23:58.492Z,53.10
2018-08-06T13:26:26.021Z,53.20
2018-08-06T13:28:53.564Z,53.00
2018-08-06T13:31:21.121Z,52.90
2018-08-06T13:33:48.647Z,52.80
2018-08-06T13:36:16.167Z,52.00
2018-08-06T13:38:43.770Z,52.30
2018-08-06T13:41:11.312Z,52.30
2018-08-06T13:43:39.012Z,52.30
2018-08-06T13:46:06.584Z,52.40
2018-08-06T13:48:38.308Z,52.30
2018-08-06T13:51:06.215Z,52.20
2018-08-06T13:53:33.765Z,52.30
2018-08-06T13:56:01.312Z,52.10
2018-08-06T13:58:28.856Z,51.50
2018-08-06T14:00:56.380Z,51.00
2018-08-06T14:03:24.008Z,50.80
2018-08-06T14:05:51.540Z,51.10
2018-08-06T14:08:19.070Z,50.90
2018-08-06T14:10:46.591Z,51.30
2018-08-06T14:13:14.168Z,51.60
2018-08-06T14:15:41.708Z,51.80
2018-08-06T14:18:09.236Z,51.90
2018-08-06T14:20:36.961Z,52.00
2018-08-06T14:23:04.532Z,52.00
2018-08-06T14:25:32.089Z,52.10
2018-08-06T14:27:59.671Z,52.10
2018-08-06T14:30:27.226Z,52.30
2018-08-06T14:32:54.756Z,52.30
2018-08-06T14:35:22.295Z,52.50
2018-08-06T14:37:49.815Z,52.80
2018-08-06T14:40:18.517Z,52.80
2018-08-06T14:42:46.353Z,53.20
2018-08-06T14:45:13.930Z,53.10
2018-08-06T14:47:41.453Z,53.00
2018-08-06T14:50:09.811Z,52.20
2018-08-06T14:52:37.618Z,52.50
2018-08-06T14:55:05.159Z,52.20
2018-08-06T14:57:37.647Z,52.10
2018-08-06T15:00:08.460Z,52.00
2018-08-06T15:02:35.984Z,51.80
2018-08-06T15:05:03.524Z,51.90
2018-08-06T15:07:31.398Z,51.80
2018-08-06T15:09:58.940Z,51.60
2018-08-06T15:12:26.460Z,51.50
2018-08-06T15:14:54.016Z,51.80
2018-08-06T15:17:21.547Z,52.60
2018-08-06T15:19:49.184Z,53.10
2018-08-06T15:22:16.716Z,53.40
2018-08-06T15:24:44.399Z,52.70
2018-08-06T15:27:11.912Z,51.90
2018-08-06T15:29:39.847Z,51.80
2018-08-06T15:32:07.583Z,50.00
2018-08-06T15:34:35.084Z,49.20
2018-08-06T15:37:02.823Z,49.80
2018-08-06T15:39:30.344Z,49.50
2018-08-06T15:41:57.892Z,49.10
2018-08-06T15:44:25.432Z,48.50
2018-08-06T15:46:52.976Z,48.40
2018-08-06T15:49:20.504Z,48.40
2018-08-06T15:51:48.052Z,48.30
2018-08-06T15:54:15.584Z,48.20
2018-08-06T15:56:43.103Z,47.70
2018-08-06T15:59:10.624Z,47.20
2018-08-06T16:01:38.153Z,46.80
2018-08-06T16:04:05.675Z,46.60
2018-08-06T16:06:33.191Z,46.70
2018-08-06T16:09:00.716Z,46.80
2018-08-06T16:11:28.298Z,46.20
2018-08-06T16:13:55.808Z,46.50
2018-08-06T16:16:23.344Z,46.30
2018-08-06T16:18:50.876Z,45.90
2018-08-06T16:21:18.400Z,45.80
2018-08-06T16:23:45.950Z,46.50
2018-08-06T16:26:13.509Z,45.90
2018-08-06T16:28:41.074Z,45.90
2018-08-06T16:31:08.635Z,45.60
2018-08-06T16:33:36.227Z,45.80
2018-08-06T16:36:03.780Z,45.30
2018-08-06T16:38:31.412Z,44.70
2018-08-06T16:40:58.961Z,44.90
2018-08-06T16:43:26.476Z,45.60
2018-08-06T16:45:54.056Z,45.40
2018-08-06T16:48:21.585Z,45.50
2018-08-06T16:50:49.136Z,46.40
2018-08-06T16:53:16.679Z,45.10
2018-08-06T16:55:44.306Z,45.40
2018-08-06T16:58:11.908Z,45.50
2018-08-06T17:00:39.462Z,45.60
2018-08-06T17:03:07.071Z,45.00
2018-08-06T17:05:34.756Z,44.80
2018-08-06T17:08:02.328Z,45.10
2018-08-06T17:10:29.867Z,45.30
2018-08-06T17:12:57.392Z,45.40
2018-08-06T17:15:24.920Z,46.20
2018-08-06T17:17:53.483Z,46.90
2018-08-06T17:20:22.013Z,47.20
2018-08-06T17:22:50.392Z,47.30
2018-08-06T17:25:18.071Z,47.30
2018-08-06T17:27:45.610Z,47.00
2018-08-06T17:30:13.689Z,47.40
2018-08-06T17:32:41.220Z,46.50
2018-08-06T17:35:09.838Z,47.00
2018-08-06T17:37:37.389Z,46.70
2018-08-06T17:40:06.536Z,47.00
2018-08-06T17:42:34.190Z,46.80
2018-08-06T17:45:01.718Z,46.70
2018-08-06T17:47:29.245Z,46.40
2018-08-06T17:49:56.773Z,46.00
2018-08-06T17:52:24.296Z,45.80
2018-08-06T17:54:51.832Z,45.80
2018-08-06T17:57:19.370Z,45.70
2018-08-06T17:59:46.900Z,45.80
2018-08-06T18:02:14.614Z,45.50
2018-08-06T18:04:42.142Z,45.50
2018-08-06T18:07:09.802Z,45.50
2018-08-06T18:09:37.347Z,45.20
2018-08-06T18:12:04.887Z,45.10
2018-08-06T18:14:33.272Z,45.30
2018-08-06T18:17:00.796Z,45.70
2018-08-06T18:19:28.316Z,45.80
2018-08-06T18:21:55.843Z,46.10
2018-08-06T18:24:23.480Z,46.40
2018-08-06T18:26:51.019Z,46.40
2018-08-06T18:29:18.557Z,46.40
2018-08-06T18:31:46.124Z,46.50
2018-08-06T18:34:13.655Z,46.90
2018-08-06T18:36:41.229Z,47.20
2018-08-06T18:39:10.172Z,46.90
2018-08-06T18:41:37.688Z,46.20
2018-08-06T18:44:05.252Z,46.00
2018-08-06T18:46:32.790Z,45.90
2018-08-06T18:49:00.312Z,45.70
2018-08-06T18:51:27.845Z,47.30
2018-08-06T18:53:55.385Z,48.50
2018-08-06T18:56:23.027Z,48.90
2018-08-06T18:58:50.564Z,49.40
2018-08-06T19:01:18.108Z,50.00
2018-08-06T19:03:45.655Z,50.30
2018-08-06T19:06:13.190Z,50.70
2018-08-06T19:08:40.717Z,51.00
2018-08-06T19:11:08.256Z,50.70
2018-08-06T19:13:41.324Z,50.40
2018-08-06T19:18:57.700Z,53.50
2018-08-06T19:21:25.233Z,48.60
2018-08-06T19:23:57.160Z,47.40
2018-08-06T19:26:24.699Z,47.30
2018-08-06T19:28:52.224Z,46.80
2018-08-06T19:31:26.476Z,46.70
2018-08-06T19:33:54.647Z,46.70
2018-08-06T19:36:22.312Z,46.70
2018-08-06T19:38:49.863Z,46.90
2018-08-06T19:41:17.392Z,47.40
2018-08-06T19:43:44.931Z,47.90
2018-08-06T19:46:12.455Z,47.20
2018-08-06T19:48:40.009Z,47.50
2018-08-06T19:51:07.546Z,47.20
2018-08-06T19:53:35.089Z,47.60
2018-08-06T19:56:08.072Z,48.30
2018-08-06T19:58:35.647Z,48.90
2018-08-06T20:01:03.177Z,48.60
2018-08-06T20:03:30.755Z,48.70
2018-08-06T20:05:58.268Z,49.00
2018-08-06T20:08:25.811Z,49.10
2018-08-06T20:10:53.336Z,49.40
2018-08-06T20:13:20.876Z,49.60
2018-08-06T20:15:48.441Z,49.30
2018-08-06T20:18:16.023Z,49.00
2018-08-06T20:20:43.555Z,49.60
2018-08-06T20:23:11.120Z,50.10
2018-08-06T20:25:38.674Z,50.50
2018-08-06T20:28:06.245Z,50.60
2018-08-06T20:30:39.410Z,50.60
2018-08-06T20:33:06.967Z,50.00
2018-08-06T20:35:37.369Z,50.10
2018-08-06T20:38:05.170Z,50.40
2018-08-06T20:41:38.941Z,50.60
2018-08-06T20:44:06.744Z,50.50
2018-08-06T20:46:34.311Z,49.70
2018-08-06T20:49:01.911Z,49.50
2018-08-06T20:51:29.448Z,49.40
2018-08-06T20:54:00.436Z,49.10
2018-08-06T20:56:27.960Z,49.20
2018-08-06T20:58:55.509Z,48.90
2018-08-06T21:01:23.040Z,49.10
2018-08-06T21:03:50.619Z,49.30
2018-08-06T21:06:18.147Z,49.30
2018-08-06T21:08:47.724Z,49.40
2018-08-06T21:11:16.135Z,49.40
2018-08-06T21:13:43.684Z,49.50
2018-08-06T21:16:11.219Z,49.60
2018-08-06T21:18:38.784Z,49.70
2018-08-06T21:21:06.320Z,50.20
2018-08-06T21:23:33.876Z,49.20
2018-08-06T21:26:01.403Z,49.20
2018-08-06T21:28:28.932Z,49.30
2018-08-06T21:30:56.468Z,49.20
2018-08-06T21:33:23.999Z,48.80
2018-08-06T21:35:51.559Z,48.70
2018-08-06T21:38:19.172Z,48.70
2018-08-06T21:40:46.718Z,48.80
2018-08-06T21:43:14.255Z,49.00
2018-08-06T21:45:41.825Z,49.20
2018-08-06T21:48:09.324Z,49.30
2018-08-06T21:50:37.072Z,49.40
2018-08-06T21:53:04.527Z,49.40
2018-08-06T21:55:37.556Z,49.30
2018-08-06T21:58:05.095Z,49.60
2018-08-06T22:00:37.328Z,49.80
2018-08-06T22:03:06.100Z,49.70
2018-08-06T22:05:33.704Z,49.80
2018-08-06T22:08:01.224Z,49.70
2018-08-06T22:10:28.854Z,49.60
2018-08-06T22:12:56.385Z,49.70
2018-08-06T22:15:23.956Z,49.90
2018-08-06T22:17:51.476Z,49.90
2018-08-06T22:20:19.041Z,50.10
2018-08-06T22:22:46.572Z,50.10
2018-08-06T22:25:14.140Z,50.10
2018-08-06T22:27:41.708Z,50.10
2018-08-06T22:30:10.093Z,50.20
2018-08-06T22:32:37.660Z,50.30
2018-08-06T22:35:06.252Z,50.40
2018-08-06T22:37:33.787Z,50.50
2018-08-06T22:40:01.364Z,50.50
2018-08-06T22:42:28.867Z,50.50
2018-08-06T22:44:56.415Z,50.50
2018-08-06T22:47:23.943Z,50.60
2018-08-06T22:49:51.487Z,50.60
2018-08-06T22:52:19.034Z,50.60
2018-08-06T22:54:46.568Z,50.80
2018-08-06T22:57:14.096Z,50.80
2018-08-06T22:59:41.652Z,50.80
2018-08-06T23:02:09.216Z,50.80
2018-08-06T23:04:36.771Z,51.00
2018-08-06T23:07:04.301Z,50.80
2018-08-06T23:09:31.844Z,50.90
2018-08-06T23:11:59.436Z,51.00
2018-08-06T23:14:26.985Z,50.90
2018-08-06T23:16:54.524Z,51.00
2018-08-06T23:19:22.044Z,51.10
2018-08-06T23:21:49.818Z,51.10
2018-08-06T23:24:17.367Z,51.10
2018-08-06T23:26:44.892Z,51.30
2018-08-06T23:29:12.424Z,51.20
2018-08-06T23:31:39.952Z,51.20
2018-08-06T23:34:07.470Z,51.40
2018-08-06T23:36:35.010Z,51.40
2018-08-06T23:39:02.625Z,51.30
2018-08-06T23:41:30.147Z,51.40
2018-08-06T23:43:57.718Z,51.50
2018-08-06T23:46:25.332Z,51.40
2018-08-06T23:48:52.943Z,51.30
2018-08-06T23:51:20.480Z,51.30
2018-08-06T23:53:48.003Z,51.30
2018-08-06T23:56:15.537Z,51.40
2018-08-06T23:58:43.064Z,51.40
